createdAt,value
2024-05-09T00:03:59.404Z,79
2024-05-09T00:13:59.486Z,79
2024-05-09T00:33:59.800Z,80
2024-05-09T00:43:59.972Z,81
2024-05-09T01:14:00.281Z,82
2024-05-09T01:24:00.414Z,82
2024-05-09T01:34:00.747Z,82
2024-05-09T01:44:00.710Z,83
2024-05-09T01:54:00.812Z,83
2024-05-09T02:04:01.087Z,84
2024-05-09T02:14:01.140Z,84
2024-05-09T02:24:07.327Z,84
2024-05-09T02:34:07.571Z,84
2024-05-09T02:44:01.543Z,84
2024-05-09T02:54:01.615Z,85
2024-05-09T03:04:01.845Z,85
2024-05-09T03:14:08.044Z,85
2024-05-09T03:24:02.016Z,86
2024-05-09T03:34:02.350Z,86
2024-05-09T03:44:02.390Z,86
2024-05-09T03:54:02.438Z,86
2024-05-09T04:04:02.587Z,87
2024-05-09T04:14:02.690Z,87
2024-05-09T04:34:03.083Z,88
2024-05-09T04:44:03.107Z,87
2024-05-09T04:54:03.253Z,88
2024-05-09T05:04:03.435Z,88
2024-05-09T05:34:03.849Z,89
2024-05-09T05:44:03.943Z,88
2024-05-09T05:54:04.070Z,88
2024-05-09T06:04:04.335Z,87
2024-05-09T06:14:04.308Z,87
2024-05-09T06:24:10.607Z,86
2024-05-09T06:34:04.763Z,85
2024-05-09T06:44:04.748Z,83
2024-05-09T06:54:04.867Z,81
2024-05-09T07:04:05.200Z,80
2024-05-09T07:24:05.288Z,79
2024-05-09T07:34:05.433Z,77
2024-05-09T07:54:06.403Z,72
2024-05-09T08:04:05.894Z,71
2024-05-09T08:34:06.233Z,66
2024-05-09T08:44:06.349Z,65
2024-05-09T08:54:06.397Z,64
2024-05-09T09:04:06.753Z,64
2024-05-09T09:14:06.659Z,63
2024-05-09T09:24:08.689Z,62
2024-05-09T09:34:07.123Z,61
2024-05-09T09:54:07.196Z,59
2024-05-09T10:04:07.451Z,58
2024-05-09T10:14:07.500Z,58
2024-05-09T10:24:07.567Z,55
2024-05-09T10:34:07.802Z,55
2024-05-09T10:44:13.936Z,56
2024-05-09T10:54:08.020Z,56
2024-05-09T11:04:08.355Z,56
2024-05-09T11:14:08.220Z,57
2024-05-09T11:24:10.584Z,56
2024-05-09T11:34:08.501Z,56
2024-05-09T11:44:08.621Z,56
2024-05-09T11:54:08.752Z,54
2024-05-09T12:04:09.059Z,53
2024-05-09T12:24:09.144Z,53
2024-05-09T12:34:09.397Z,52
2024-05-09T13:04:09.780Z,52
2024-05-09T13:34:10.065Z,52
2024-05-09T13:54:10.318Z,50
2024-05-09T14:14:10.589Z,51
2024-05-09T14:24:10.691Z,51
2024-05-09T14:34:10.984Z,51
2024-05-09T14:44:10.957Z,51
2024-05-09T14:54:11.122Z,50
2024-05-09T15:04:11.292Z,49
2024-05-09T15:24:17.585Z,50
2024-05-09T15:34:11.645Z,50
2024-05-09T15:44:11.741Z,50
2024-05-09T15:54:11.872Z,50
2024-05-09T16:04:18.375Z,50
2024-05-09T16:14:18.420Z,50
2024-05-09T16:24:12.249Z,50
2024-05-09T16:34:12.467Z,50
2024-05-09T16:44:12.521Z,51
2024-05-09T16:54:12.654Z,51
2024-05-09T17:04:12.949Z,52
2024-05-09T17:14:12.898Z,52
2024-05-09T17:24:13.038Z,53
2024-05-09T17:34:13.335Z,53
2024-05-09T17:54:13.484Z,53
2024-05-09T18:04:13.702Z,54
2024-05-09T18:14:13.694Z,54
2024-05-09T18:34:14.031Z,56
2024-05-09T18:44:14.112Z,56
2024-05-09T18:54:14.213Z,57
2024-05-09T19:04:14.632Z,57
2024-05-09T19:14:14.472Z,59
2024-05-09T19:24:14.649Z,59
2024-05-09T19:34:14.773Z,59
2024-05-09T19:44:14.866Z,60
2024-05-09T19:54:15.013Z,61
2024-05-09T20:04:15.296Z,61
2024-05-09T20:14:15.295Z,62
2024-05-09T20:34:15.602Z,63
2024-05-09T21:04:16.031Z,66
2024-05-09T21:14:16.052Z,66
2024-05-09T21:34:16.437Z,67
2024-05-09T21:44:16.455Z,68
2024-05-09T21:54:16.634Z,68
2024-05-09T22:14:16.842Z,69
2024-05-09T22:24:16.988Z,70
2024-05-09T22:34:17.239Z,71
2024-05-09T22:44:17.250Z,72
2024-05-09T22:54:17.406Z,72
2024-05-09T23:04:17.532Z,73
2024-05-09T23:14:17.632Z,73
2024-05-09T23:24:23.866Z,74
2024-05-09T23:34:18.151Z,75
2024-05-09T23:44:18.034Z,75
2024-05-09T23:54:18.169Z,76
